Hailstone, Utah
Current Conditions -  °F | °C
As of 2:55 AM on Monday 22 Dec 2014 (Local Time) from K36U Reporting Station
Unknown Precip Unknown Precip  
Wind Chill: 29°   Ceiling: 3800
Heat Index: 36°   Visibility: 10mi
Dew Point: 32°   Wind: 8mph
Humidity: 87%   Direction: 170°S
Pressure: 29.99"   Gusts: NA
Location:  40.2386°N, 111.149°W
Report Text: K36U 220955Z AUTO 17007KT 10SM UP SCT022 BKN038 OVC060 02/00 A2999 RMK AO2
Loading
Personal Weather Stations






























Interactive Weather Map New forecast layout! Learn more

10-Day Weather Forecast

Advertisements
Track Severe Weather on mobile